sensor_id;sensor_type;location;lat;lon;timestamp;P1;durP1;ratioP1;P2;durP2;ratioP2
54025;SDS011;74404;50.662;3.398;2024-03-08T00:02:03;26.83;;;17.95;;
54025;SDS011;74404;50.662;3.398;2024-03-08T00:04:29;24.02;;;16.98;;
54025;SDS011;74404;50.662;3.398;2024-03-08T00:06:54;27.23;;;18.17;;
54025;SDS011;74404;50.662;3.398;2024-03-08T00:09:20;27.17;;;17.00;;
54025;SDS011;74404;50.662;3.398;2024-03-08T00:11:46;24.75;;;16.70;;
54025;SDS011;74404;50.662;3.398;2024-03-08T00:14:14;25.25;;;17.10;;
54025;SDS011;74404;50.662;3.398;2024-03-08T00:16:39;23.70;;;17.02;;
54025;SDS011;74404;50.662;3.398;2024-03-08T00:19:09;24.08;;;16.15;;
54025;SDS011;74404;50.662;3.398;2024-03-08T00:21:34;26.85;;;17.60;;
54025;SDS011;74404;50.662;3.398;2024-03-08T00:24:00;23.40;;;16.63;;
54025;SDS011;74404;50.662;3.398;2024-03-08T00:26:26;25.48;;;17.63;;
54025;SDS011;74404;50.662;3.398;2024-03-08T00:28:52;24.85;;;16.63;;
54025;SDS011;74404;50.662;3.398;2024-03-08T00:31:19;24.65;;;17.05;;
54025;SDS011;74404;50.662;3.398;2024-03-08T00:33:44;23.13;;;15.95;;
54025;SDS011;74404;50.662;3.398;2024-03-08T00:36:09;24.00;;;16.48;;
54025;SDS011;74404;50.662;3.398;2024-03-08T00:38:35;25.65;;;16.40;;
54025;SDS011;74404;50.662;3.398;2024-03-08T00:41:00;26.15;;;16.75;;
54025;SDS011;74404;50.662;3.398;2024-03-08T00:43:27;25.85;;;16.38;;
54025;SDS011;74404;50.662;3.398;2024-03-08T00:45:52;24.13;;;16.77;;
54025;SDS011;74404;50.662;3.398;2024-03-08T00:48:18;24.42;;;15.68;;
54025;SDS011;74404;50.662;3.398;2024-03-08T00:50:44;22.10;;;16.20;;
54025;SDS011;74404;50.662;3.398;2024-03-08T00:53:11;24.13;;;16.35;;
54025;SDS011;74404;50.662;3.398;2024-03-08T00:55:37;23.88;;;15.63;;
54025;SDS011;74404;50.662;3.398;2024-03-08T00:58:03;23.48;;;16.58;;
54025;SDS011;74404;50.662;3.398;2024-03-08T01:00:29;24.05;;;16.33;;
54025;SDS011;74404;50.662;3.398;2024-03-08T01:02:56;26.25;;;16.73;;
54025;SDS011;74404;50.662;3.398;2024-03-08T01:05:21;23.92;;;15.57;;
54025;SDS011;74404;50.662;3.398;2024-03-08T01:07:49;24.40;;;15.88;;
54025;SDS011;74404;50.662;3.398;2024-03-08T01:10:15;25.17;;;16.50;;
54025;SDS011;74404;50.662;3.398;2024-03-08T01:12:40;21.70;;;15.25;;
54025;SDS011;74404;50.662;3.398;2024-03-08T01:15:08;24.08;;;15.93;;
54025;SDS011;74404;50.662;3.398;2024-03-08T01:17:35;23.83;;;16.48;;
54025;SDS011;74404;50.662;3.398;2024-03-08T01:20:01;22.95;;;15.65;;
54025;SDS011;74404;50.662;3.398;2024-03-08T01:22:27;23.30;;;16.30;;
54025;SDS011;74404;50.662;3.398;2024-03-08T01:24:55;23.23;;;15.70;;
54025;SDS011;74404;50.662;3.398;2024-03-08T01:27:21;22.88;;;15.30;;
54025;SDS011;74404;50.662;3.398;2024-03-08T01:29:47;23.65;;;16.00;;
54025;SDS011;74404;50.662;3.398;2024-03-08T01:32:12;25.05;;;16.48;;
54025;SDS011;74404;50.662;3.398;2024-03-08T01:34:38;23.17;;;15.38;;
54025;SDS011;74404;50.662;3.398;2024-03-08T01:37:04;23.80;;;15.90;;
54025;SDS011;74404;50.662;3.398;2024-03-08T01:39:29;24.23;;;15.45;;
54025;SDS011;74404;50.662;3.398;2024-03-08T01:41:55;23.50;;;15.75;;
54025;SDS011;74404;50.662;3.398;2024-03-08T01:44:20;23.80;;;15.40;;
54025;SDS011;74404;50.662;3.398;2024-03-08T01:46:46;22.67;;;15.65;;
54025;SDS011;74404;50.662;3.398;2024-03-08T01:49:13;22.65;;;15.18;;
54025;SDS011;74404;50.662;3.398;2024-03-08T01:51:39;23.45;;;16.30;;
54025;SDS011;74404;50.662;3.398;2024-03-08T01:54:06;24.27;;;15.50;;
54025;SDS011;74404;50.662;3.398;2024-03-08T01:56:35;23.33;;;15.27;;
54025;SDS011;74404;50.662;3.398;2024-03-08T01:59:01;23.52;;;16.15;;
54025;SDS011;74404;50.662;3.398;2024-03-08T02:01:27;22.92;;;14.90;;
54025;SDS011;74404;50.662;3.398;2024-03-08T02:03:53;22.63;;;15.70;;
54025;SDS011;74404;50.662;3.398;2024-03-08T02:06:19;22.50;;;15.27;;
54025;SDS011;74404;50.662;3.398;2024-03-08T02:08:45;24.05;;;16.05;;
54025;SDS011;74404;50.662;3.398;2024-03-08T02:11:11;22.63;;;14.93;;
54025;SDS011;74404;50.662;3.398;2024-03-08T02:13:37;22.85;;;15.60;;
54025;SDS011;74404;50.662;3.398;2024-03-08T02:16:02;23.67;;;15.52;;
54025;SDS011;74404;50.662;3.398;2024-03-08T02:18:29;22.83;;;15.65;;
54025;SDS011;74404;50.662;3.398;2024-03-08T02:20:56;22.58;;;15.32;;
54025;SDS011;74404;50.662;3.398;2024-03-08T02:23:23;24.88;;;15.75;;
54025;SDS011;74404;50.662;3.398;2024-03-08T02:25:52;23.35;;;15.40;;
54025;SDS011;74404;50.662;3.398;2024-03-08T02:28:18;23.27;;;15.23;;
54025;SDS011;74404;50.662;3.398;2024-03-08T02:30:47;24.00;;;15.80;;
54025;SDS011;74404;50.662;3.398;2024-03-08T02:33:14;27.45;;;16.42;;
54025;SDS011;74404;50.662;3.398;2024-03-08T02:35:46;24.25;;;15.45;;
54025;SDS011;74404;50.662;3.398;2024-03-08T02:38:16;25.00;;;15.70;;
54025;SDS011;74404;50.662;3.398;2024-03-08T02:40:44;25.55;;;15.77;;
54025;SDS011;74404;50.662;3.398;2024-03-08T02:43:10;21.30;;;15.05;;
54025;SDS011;74404;50.662;3.398;2024-03-08T02:45:37;25.48;;;16.05;;
54025;SDS011;74404;50.662;3.398;2024-03-08T02:48:02;25.48;;;15.85;;
54025;SDS011;74404;50.662;3.398;2024-03-08T02:50:28;25.92;;;15.73;;
54025;SDS011;74404;50.662;3.398;2024-03-08T02:52:54;24.05;;;16.17;;
54025;SDS011;74404;50.662;3.398;2024-03-08T02:55:19;26.05;;;16.42;;
54025;SDS011;74404;50.662;3.398;2024-03-08T02:57:45;25.15;;;16.30;;
54025;SDS011;74404;50.662;3.398;2024-03-08T03:00:14;26.33;;;16.00;;
54025;SDS011;74404;50.662;3.398;2024-03-08T03:02:41;26.88;;;16.15;;
54025;SDS011;74404;50.662;3.398;2024-03-08T03:05:07;24.00;;;15.70;;
54025;SDS011;74404;50.662;3.398;2024-03-08T03:07:35;27.50;;;16.95;;
54025;SDS011;74404;50.662;3.398;2024-03-08T03:10:01;27.23;;;16.88;;
54025;SDS011;74404;50.662;3.398;2024-03-08T03:12:30;26.67;;;16.63;;
54025;SDS011;74404;50.662;3.398;2024-03-08T03:14:56;24.20;;;15.75;;
54025;SDS011;74404;50.662;3.398;2024-03-08T03:17:23;26.17;;;16.58;;
54025;SDS011;74404;50.662;3.398;2024-03-08T03:19:49;27.50;;;16.70;;
54025;SDS011;74404;50.662;3.398;2024-03-08T03:22:17;25.42;;;16.45;;
54025;SDS011;74404;50.662;3.398;2024-03-08T03:24:43;24.83;;;16.40;;
54025;SDS011;74404;50.662;3.398;2024-03-08T03:27:11;23.60;;;15.48;;
54025;SDS011;74404;50.662;3.398;2024-03-08T03:29:41;27.52;;;16.48;;
54025;SDS011;74404;50.662;3.398;2024-03-08T03:32:13;24.70;;;16.20;;
54025;SDS011;74404;50.662;3.398;2024-03-08T03:34:40;27.58;;;16.30;;
54025;SDS011;74404;50.662;3.398;2024-03-08T03:37:06;26.50;;;16.98;;
54025;SDS011;74404;50.662;3.398;2024-03-08T03:39:37;26.48;;;16.85;;
54025;SDS011;74404;50.662;3.398;2024-03-08T03:42:18;25.50;;;15.77;;
54025;SDS011;74404;50.662;3.398;2024-03-08T03:44:45;25.00;;;15.95;;
54025;SDS011;74404;50.662;3.398;2024-03-08T03:47:12;26.65;;;17.30;;
54025;SDS011;74404;50.662;3.398;2024-03-08T03:49:38;25.42;;;16.63;;
54025;SDS011;74404;50.662;3.398;2024-03-08T03:52:04;25.77;;;16.23;;
54025;SDS011;74404;50.662;3.398;2024-03-08T03:54:30;25.25;;;16.17;;
54025;SDS011;74404;50.662;3.398;2024-03-08T03:56:56;26.02;;;16.52;;
54025;SDS011;74404;50.662;3.398;2024-03-08T03:59:23;25.52;;;15.85;;
54025;SDS011;74404;50.662;3.398;2024-03-08T04:01:49;28.95;;;17.13;;
54025;SDS011;74404;50.662;3.398;2024-03-08T04:04:15;27.67;;;17.25;;
54025;SDS011;74404;50.662;3.398;2024-03-08T04:06:41;27.48;;;17.05;;
54025;SDS011;74404;50.662;3.398;2024-03-08T04:09:07;27.25;;;17.05;;
54025;SDS011;74404;50.662;3.398;2024-03-08T04:11:32;26.05;;;16.65;;
54025;SDS011;74404;50.662;3.398;2024-03-08T04:13:58;28.00;;;17.08;;
54025;SDS011;74404;50.662;3.398;2024-03-08T04:16:24;28.70;;;17.63;;
54025;SDS011;74404;50.662;3.398;2024-03-08T04:18:51;28.10;;;16.80;;
54025;SDS011;74404;50.662;3.398;2024-03-08T04:21:17;29.52;;;17.35;;
54025;SDS011;74404;50.662;3.398;2024-03-08T04:23:44;27.98;;;16.83;;
54025;SDS011;74404;50.662;3.398;2024-03-08T04:26:10;30.73;;;18.80;;
54025;SDS011;74404;50.662;3.398;2024-03-08T04:28:36;25.55;;;16.70;;
54025;SDS011;74404;50.662;3.398;2024-03-08T04:31:03;27.40;;;16.92;;
54025;SDS011;74404;50.662;3.398;2024-03-08T04:33:29;28.83;;;17.10;;
54025;SDS011;74404;50.662;3.398;2024-03-08T04:35:54;28.80;;;17.98;;
54025;SDS011;74404;50.662;3.398;2024-03-08T04:38:20;28.17;;;17.35;;
54025;SDS011;74404;50.662;3.398;2024-03-08T04:40:46;25.90;;;16.83;;
54025;SDS011;74404;50.662;3.398;2024-03-08T04:43:12;27.17;;;17.23;;
54025;SDS011;74404;50.662;3.398;2024-03-08T04:45:37;29.65;;;18.60;;
54025;SDS011;74404;50.662;3.398;2024-03-08T04:48:04;28.13;;;18.15;;
54025;SDS011;74404;50.662;3.398;2024-03-08T04:50:30;27.90;;;17.73;;
54025;SDS011;74404;50.662;3.398;2024-03-08T04:52:55;27.92;;;17.55;;
54025;SDS011;74404;50.662;3.398;2024-03-08T04:55:21;30.85;;;17.75;;
54025;SDS011;74404;50.662;3.398;2024-03-08T04:57:49;26.58;;;17.80;;
54025;SDS011;74404;50.662;3.398;2024-03-08T05:00:15;28.38;;;17.88;;
54025;SDS011;74404;50.662;3.398;2024-03-08T05:02:41;25.25;;;16.65;;
54025;SDS011;74404;50.662;3.398;2024-03-08T05:05:09;28.92;;;18.45;;
54025;SDS011;74404;50.662;3.398;2024-03-08T05:07:38;29.23;;;18.52;;
54025;SDS011;74404;50.662;3.398;2024-03-08T05:10:05;29.98;;;18.48;;
54025;SDS011;74404;50.662;3.398;2024-03-08T05:12:32;29.95;;;18.15;;
54025;SDS011;74404;50.662;3.398;2024-03-08T05:14:58;30.63;;;18.75;;
54025;SDS011;74404;50.662;3.398;2024-03-08T05:17:23;27.75;;;18.02;;
54025;SDS011;74404;50.662;3.398;2024-03-08T05:19:49;30.00;;;18.17;;
54025;SDS011;74404;50.662;3.398;2024-03-08T05:22:15;28.73;;;19.23;;
54025;SDS011;74404;50.662;3.398;2024-03-08T05:24:40;28.55;;;19.35;;
54025;SDS011;74404;50.662;3.398;2024-03-08T05:27:06;28.33;;;19.10;;
54025;SDS011;74404;50.662;3.398;2024-03-08T05:29:31;27.92;;;18.92;;
54025;SDS011;74404;50.662;3.398;2024-03-08T05:31:58;29.20;;;19.13;;
54025;SDS011;74404;50.662;3.398;2024-03-08T05:34:24;31.80;;;19.90;;
54025;SDS011;74404;50.662;3.398;2024-03-08T05:36:51;29.27;;;18.92;;
54025;SDS011;74404;50.662;3.398;2024-03-08T05:39:17;28.23;;;18.60;;
54025;SDS011;74404;50.662;3.398;2024-03-08T05:41:43;28.92;;;19.55;;
54025;SDS011;74404;50.662;3.398;2024-03-08T05:44:09;30.17;;;19.65;;
54025;SDS011;74404;50.662;3.398;2024-03-08T05:46:36;30.10;;;20.65;;
54025;SDS011;74404;50.662;3.398;2024-03-08T05:49:05;29.30;;;19.65;;
54025;SDS011;74404;50.662;3.398;2024-03-08T05:51:32;31.05;;;19.55;;
54025;SDS011;74404;50.662;3.398;2024-03-08T05:54:00;32.33;;;20.60;;
54025;SDS011;74404;50.662;3.398;2024-03-08T05:56:30;28.48;;;19.15;;
54025;SDS011;74404;50.662;3.398;2024-03-08T05:58:56;30.02;;;19.45;;
54025;SDS011;74404;50.662;3.398;2024-03-08T06:01:23;28.65;;;19.38;;
54025;SDS011;74404;50.662;3.398;2024-03-08T06:03:55;29.50;;;19.48;;
54025;SDS011;74404;50.662;3.398;2024-03-08T06:06:22;29.52;;;19.95;;
54025;SDS011;74404;50.662;3.398;2024-03-08T06:08:48;28.55;;;18.38;;
54025;SDS011;74404;50.662;3.398;2024-03-08T06:11:17;29.02;;;19.60;;
54025;SDS011;74404;50.662;3.398;2024-03-08T06:13:44;31.90;;;19.92;;
54025;SDS011;74404;50.662;3.398;2024-03-08T06:16:09;32.47;;;21.20;;
54025;SDS011;74404;50.662;3.398;2024-03-08T06:18:35;29.90;;;20.13;;
54025;SDS011;74404;50.662;3.398;2024-03-08T06:21:04;30.15;;;19.95;;
54025;SDS011;74404;50.662;3.398;2024-03-08T06:23:37;28.88;;;20.00;;
54025;SDS011;74404;50.662;3.398;2024-03-08T06:26:07;31.58;;;21.25;;
54025;SDS011;74404;50.662;3.398;2024-03-08T06:28:33;34.63;;;20.77;;
54025;SDS011;74404;50.662;3.398;2024-03-08T06:30:59;29.73;;;20.63;;
54025;SDS011;74404;50.662;3.398;2024-03-08T06:33:25;31.10;;;20.85;;
54025;SDS011;74404;50.662;3.398;2024-03-08T06:35:51;27.63;;;19.35;;
54025;SDS011;74404;50.662;3.398;2024-03-08T06:38:17;31.77;;;21.70;;
54025;SDS011;74404;50.662;3.398;2024-03-08T06:40:44;31.85;;;20.88;;
54025;SDS011;74404;50.662;3.398;2024-03-08T06:43:12;29.23;;;20.50;;
54025;SDS011;74404;50.662;3.398;2024-03-08T06:45:41;33.35;;;20.95;;
54025;SDS011;74404;50.662;3.398;2024-03-08T06:48:07;31.35;;;20.70;;
54025;SDS011;74404;50.662;3.398;2024-03-08T06:50:34;32.50;;;21.48;;
54025;SDS011;74404;50.662;3.398;2024-03-08T06:53:01;31.73;;;20.55;;
54025;SDS011;74404;50.662;3.398;2024-03-08T06:55:28;30.88;;;20.90;;
54025;SDS011;74404;50.662;3.398;2024-03-08T06:57:54;32.90;;;21.70;;
54025;SDS011;74404;50.662;3.398;2024-03-08T07:00:19;31.85;;;22.00;;
54025;SDS011;74404;50.662;3.398;2024-03-08T07:02:46;31.63;;;20.95;;
54025;SDS011;74404;50.662;3.398;2024-03-08T07:05:14;35.58;;;21.52;;
54025;SDS011;74404;50.662;3.398;2024-03-08T07:07:41;32.55;;;22.02;;
54025;SDS011;74404;50.662;3.398;2024-03-08T07:10:08;32.05;;;21.80;;
54025;SDS011;74404;50.662;3.398;2024-03-08T07:12:36;32.58;;;21.50;;
54025;SDS011;74404;50.662;3.398;2024-03-08T07:15:04;33.15;;;21.77;;
54025;SDS011;74404;50.662;3.398;2024-03-08T07:17:30;31.30;;;21.33;;
54025;SDS011;74404;50.662;3.398;2024-03-08T07:19:59;32.95;;;22.00;;
54025;SDS011;74404;50.662;3.398;2024-03-08T07:22:31;31.88;;;22.15;;
54025;SDS011;74404;50.662;3.398;2024-03-08T07:24:56;33.33;;;21.30;;
54025;SDS011;74404;50.662;3.398;2024-03-08T07:27:40;32.92;;;22.30;;
54025;SDS011;74404;50.662;3.398;2024-03-08T07:30:06;32.72;;;21.40;;
54025;SDS011;74404;50.662;3.398;2024-03-08T07:32:34;33.90;;;21.88;;
54025;SDS011;74404;50.662;3.398;2024-03-08T07:35:00;33.15;;;21.33;;
54025;SDS011;74404;50.662;3.398;2024-03-08T07:37:28;35.03;;;22.30;;
54025;SDS011;74404;50.662;3.398;2024-03-08T07:39:54;34.88;;;22.27;;
54025;SDS011;74404;50.662;3.398;2024-03-08T07:42:19;33.03;;;22.52;;
54025;SDS011;74404;50.662;3.398;2024-03-08T07:44:47;32.17;;;21.85;;
54025;SDS011;74404;50.662;3.398;2024-03-08T07:47:13;33.85;;;20.98;;
54025;SDS011;74404;50.662;3.398;2024-03-08T07:49:39;33.95;;;20.95;;
54025;SDS011;74404;50.662;3.398;2024-03-08T07:52:04;34.25;;;22.23;;
54025;SDS011;74404;50.662;3.398;2024-03-08T07:54:32;32.42;;;22.63;;
54025;SDS011;74404;50.662;3.398;2024-03-08T07:57:00;32.53;;;22.38;;
54025;SDS011;74404;50.662;3.398;2024-03-08T07:59:28;33.85;;;23.00;;
54025;SDS011;74404;50.662;3.398;2024-03-08T08:01:54;33.08;;;21.35;;
54025;SDS011;74404;50.662;3.398;2024-03-08T08:04:20;35.60;;;23.13;;
54025;SDS011;74404;50.662;3.398;2024-03-08T08:06:49;35.47;;;22.45;;
54025;SDS011;74404;50.662;3.398;2024-03-08T08:09:16;34.92;;;23.08;;
54025;SDS011;74404;50.662;3.398;2024-03-08T08:11:53;35.03;;;22.77;;
54025;SDS011;74404;50.662;3.398;2024-03-08T08:14:19;33.80;;;22.88;;
54025;SDS011;74404;50.662;3.398;2024-03-08T08:16:46;31.50;;;22.40;;
54025;SDS011;74404;50.662;3.398;2024-03-08T08:19:13;33.80;;;22.70;;
54025;SDS011;74404;50.662;3.398;2024-03-08T08:21:40;31.85;;;22.05;;
54025;SDS011;74404;50.662;3.398;2024-03-08T08:24:06;34.30;;;22.85;;
54025;SDS011;74404;50.662;3.398;2024-03-08T08:26:32;34.70;;;22.02;;
54025;SDS011;74404;50.662;3.398;2024-03-08T08:28:59;34.38;;;22.52;;
54025;SDS011;74404;50.662;3.398;2024-03-08T08:31:25;34.33;;;23.52;;
54025;SDS011;74404;50.662;3.398;2024-03-08T08:33:51;34.95;;;22.70;;
54025;SDS011;74404;50.662;3.398;2024-03-08T08:36:23;32.05;;;22.75;;
54025;SDS011;74404;50.662;3.398;2024-03-08T08:38:48;34.80;;;23.27;;
54025;SDS011;74404;50.662;3.398;2024-03-08T08:41:14;34.53;;;23.08;;
54025;SDS011;74404;50.662;3.398;2024-03-08T08:43:41;33.58;;;22.58;;
54025;SDS011;74404;50.662;3.398;2024-03-08T08:46:09;34.90;;;24.02;;
54025;SDS011;74404;50.662;3.398;2024-03-08T08:48:41;31.77;;;22.33;;
54025;SDS011;74404;50.662;3.398;2024-03-08T08:51:09;32.78;;;23.15;;
54025;SDS011;74404;50.662;3.398;2024-03-08T08:53:40;38.08;;;22.38;;
54025;SDS011;74404;50.662;3.398;2024-03-08T08:56:08;35.78;;;23.95;;
54025;SDS011;74404;50.662;3.398;2024-03-08T08:58:34;33.58;;;23.00;;
54025;SDS011;74404;50.662;3.398;2024-03-08T09:00:59;30.98;;;21.85;;
54025;SDS011;74404;50.662;3.398;2024-03-08T09:03:26;34.47;;;23.48;;
54025;SDS011;74404;50.662;3.398;2024-03-08T09:05:53;33.00;;;23.10;;
54025;SDS011;74404;50.662;3.398;2024-03-08T09:08:18;33.63;;;23.10;;
54025;SDS011;74404;50.662;3.398;2024-03-08T09:10:45;34.40;;;22.83;;
54025;SDS011;74404;50.662;3.398;2024-03-08T09:13:13;33.08;;;22.27;;
54025;SDS011;74404;50.662;3.398;2024-03-08T09:15:39;34.65;;;23.42;;
54025;SDS011;74404;50.662;3.398;2024-03-08T09:18:05;33.97;;;23.30;;
54025;SDS011;74404;50.662;3.398;2024-03-08T09:20:31;32.53;;;22.30;;
54025;SDS011;74404;50.662;3.398;2024-03-08T09:22:57;35.95;;;23.60;;
54025;SDS011;74404;50.662;3.398;2024-03-08T09:25:23;33.10;;;22.80;;
54025;SDS011;74404;50.662;3.398;2024-03-08T09:27:49;33.25;;;22.98;;
54025;SDS011;74404;50.662;3.398;2024-03-08T09:30:15;33.38;;;23.10;;
54025;SDS011;74404;50.662;3.398;2024-03-08T09:32:41;32.97;;;22.92;;
54025;SDS011;74404;50.662;3.398;2024-03-08T09:35:08;32.95;;;22.55;;
54025;SDS011;74404;50.662;3.398;2024-03-08T09:37:34;35.10;;;23.52;;
54025;SDS011;74404;50.662;3.398;2024-03-08T09:40:00;35.22;;;23.52;;
54025;SDS011;74404;50.662;3.398;2024-03-08T09:42:29;34.63;;;22.42;;
54025;SDS011;74404;50.662;3.398;2024-03-08T09:44:56;35.67;;;23.33;;
54025;SDS011;74404;50.662;3.398;2024-03-08T09:47:24;33.40;;;22.38;;
54025;SDS011;74404;50.662;3.398;2024-03-08T09:49:54;34.92;;;23.73;;
54025;SDS011;74404;50.662;3.398;2024-03-08T09:52:20;32.55;;;22.88;;
54025;SDS011;74404;50.662;3.398;2024-03-08T09:54:45;35.15;;;22.88;;
54025;SDS011;74404;50.662;3.398;2024-03-08T09:57:11;32.40;;;22.35;;
54025;SDS011;74404;50.662;3.398;2024-03-08T09:59:37;33.20;;;22.63;;
54025;SDS011;74404;50.662;3.398;2024-03-08T10:02:02;32.97;;;22.17;;
54025;SDS011;74404;50.662;3.398;2024-03-08T10:04:28;36.42;;;23.35;;
54025;SDS011;74404;50.662;3.398;2024-03-08T10:06:57;32.88;;;22.45;;
54025;SDS011;74404;50.662;3.398;2024-03-08T10:09:24;32.45;;;22.23;;
54025;SDS011;74404;50.662;3.398;2024-03-08T10:11:58;31.42;;;22.27;;
54025;SDS011;74404;50.662;3.398;2024-03-08T10:14:25;33.42;;;22.92;;
54025;SDS011;74404;50.662;3.398;2024-03-08T10:16:53;32.95;;;22.20;;
54025;SDS011;74404;50.662;3.398;2024-03-08T10:19:19;33.33;;;22.20;;
54025;SDS011;74404;50.662;3.398;2024-03-08T10:21:51;33.90;;;22.80;;
54025;SDS011;74404;50.662;3.398;2024-03-08T10:24:19;32.92;;;22.08;;
54025;SDS011;74404;50.662;3.398;2024-03-08T10:26:44;31.73;;;21.83;;
54025;SDS011;74404;50.662;3.398;2024-03-08T10:29:11;34.40;;;22.45;;
54025;SDS011;74404;50.662;3.398;2024-03-08T10:31:42;37.80;;;23.92;;
54025;SDS011;74404;50.662;3.398;2024-03-08T10:34:09;34.00;;;22.02;;
54025;SDS011;74404;50.662;3.398;2024-03-08T10:36:35;32.55;;;22.52;;
54025;SDS011;74404;50.662;3.398;2024-03-08T10:39:03;33.90;;;22.48;;
54025;SDS011;74404;50.662;3.398;2024-03-08T10:41:35;33.50;;;22.88;;
54025;SDS011;74404;50.662;3.398;2024-03-08T10:44:10;35.45;;;23.00;;
54025;SDS011;74404;50.662;3.398;2024-03-08T10:47:27;32.53;;;21.92;;
54025;SDS011;74404;50.662;3.398;2024-03-08T10:52:51;32.78;;;22.63;;
54025;SDS011;74404;50.662;3.398;2024-03-08T10:55:17;31.80;;;22.02;;
54025;SDS011;74404;50.662;3.398;2024-03-08T10:57:45;35.33;;;22.92;;
54025;SDS011;74404;50.662;3.398;2024-03-08T11:00:14;35.67;;;23.88;;
54025;SDS011;74404;50.662;3.398;2024-03-08T11:02:44;34.35;;;22.65;;
54025;SDS011;74404;50.662;3.398;2024-03-08T11:05:10;34.75;;;23.90;;
54025;SDS011;74404;50.662;3.398;2024-03-08T11:07:43;32.08;;;22.55;;
54025;SDS011;74404;50.662;3.398;2024-03-08T11:10:18;34.33;;;23.10;;
54025;SDS011;74404;50.662;3.398;2024-03-08T11:12:45;33.00;;;21.98;;
54025;SDS011;74404;50.662;3.398;2024-03-08T11:15:13;31.80;;;22.40;;
54025;SDS011;74404;50.662;3.398;2024-03-08T11:17:40;34.33;;;22.85;;
54025;SDS011;74404;50.662;3.398;2024-03-08T11:20:10;33.60;;;22.80;;
54025;SDS011;74404;50.662;3.398;2024-03-08T11:22:50;34.93;;;23.00;;
54025;SDS011;74404;50.662;3.398;2024-03-08T11:25:34;34.30;;;22.70;;
54025;SDS011;74404;50.662;3.398;2024-03-08T11:28:17;37.40;;;23.48;;
54025;SDS011;74404;50.662;3.398;2024-03-08T11:36:09;34.53;;;23.20;;
54025;SDS011;74404;50.662;3.398;2024-03-08T11:38:42;35.58;;;23.30;;
54025;SDS011;74404;50.662;3.398;2024-03-08T11:41:14;31.38;;;22.67;;
54025;SDS011;74404;50.662;3.398;2024-03-08T11:43:43;41.13;;;23.48;;
54025;SDS011;74404;50.662;3.398;2024-03-08T11:46:10;36.20;;;23.10;;
54025;SDS011;74404;50.662;3.398;2024-03-08T11:48:37;33.53;;;22.75;;
54025;SDS011;74404;50.662;3.398;2024-03-08T11:51:06;33.47;;;22.23;;
54025;SDS011;74404;50.662;3.398;2024-03-08T11:53:33;34.17;;;22.70;;
54025;SDS011;74404;50.662;3.398;2024-03-08T11:56:31;33.00;;;22.60;;
54025;SDS011;74404;50.662;3.398;2024-03-08T11:58:55;36.22;;;23.48;;
54025;SDS011;74404;50.662;3.398;2024-03-08T12:01:22;38.47;;;23.73;;
54025;SDS011;74404;50.662;3.398;2024-03-08T12:03:57;34.47;;;23.65;;
54025;SDS011;74404;50.662;3.398;2024-03-08T12:06:27;38.05;;;24.38;;
54025;SDS011;74404;50.662;3.398;2024-03-08T12:09:04;34.97;;;23.33;;
54025;SDS011;74404;50.662;3.398;2024-03-08T12:11:34;34.15;;;22.45;;
54025;SDS011;74404;50.662;3.398;2024-03-08T12:14:01;32.45;;;22.83;;
54025;SDS011;74404;50.662;3.398;2024-03-08T12:16:27;37.83;;;24.13;;
54025;SDS011;74404;50.662;3.398;2024-03-08T12:18:52;34.40;;;23.13;;
54025;SDS011;74404;50.662;3.398;2024-03-08T12:21:19;36.03;;;23.88;;
54025;SDS011;74404;50.662;3.398;2024-03-08T12:24:01;37.05;;;23.60;;
54025;SDS011;74404;50.662;3.398;2024-03-08T12:26:29;35.88;;;23.42;;
54025;SDS011;74404;50.662;3.398;2024-03-08T12:29:13;33.78;;;23.08;;
54025;SDS011;74404;50.662;3.398;2024-03-08T12:31:45;33.53;;;22.75;;
54025;SDS011;74404;50.662;3.398;2024-03-08T12:34:11;36.50;;;23.33;;
54025;SDS011;74404;50.662;3.398;2024-03-08T12:36:44;34.13;;;22.52;;
54025;SDS011;74404;50.662;3.398;2024-03-08T12:39:12;33.58;;;22.20;;
54025;SDS011;74404;50.662;3.398;2024-03-08T12:41:41;31.55;;;22.38;;
54025;SDS011;74404;50.662;3.398;2024-03-08T12:44:06;37.13;;;23.33;;
54025;SDS011;74404;50.662;3.398;2024-03-08T12:46:36;33.38;;;22.45;;
54025;SDS011;74404;50.662;3.398;2024-03-08T12:49:10;35.72;;;23.20;;
54025;SDS011;74404;50.662;3.398;2024-03-08T12:51:37;36.47;;;23.33;;
54025;SDS011;74404;50.662;3.398;2024-03-08T12:54:04;31.58;;;22.13;;
54025;SDS011;74404;50.662;3.398;2024-03-08T12:56:33;33.85;;;23.35;;
54025;SDS011;74404;50.662;3.398;2024-03-08T12:59:00;33.72;;;23.17;;
54025;SDS011;74404;50.662;3.398;2024-03-08T13:01:26;32.20;;;21.95;;
54025;SDS011;74404;50.662;3.398;2024-03-08T13:03:55;35.33;;;22.60;;
54025;SDS011;74404;50.662;3.398;2024-03-08T13:06:21;30.95;;;21.75;;
54025;SDS011;74404;50.662;3.398;2024-03-08T13:08:49;33.97;;;22.35;;
54025;SDS011;74404;50.662;3.398;2024-03-08T13:11:16;31.70;;;21.08;;
54025;SDS011;74404;50.662;3.398;2024-03-08T13:13:42;35.90;;;23.45;;
54025;SDS011;74404;50.662;3.398;2024-03-08T13:16:08;35.97;;;22.23;;
54025;SDS011;74404;50.662;3.398;2024-03-08T13:18:34;35.08;;;22.17;;
54025;SDS011;74404;50.662;3.398;2024-03-08T13:21:00;34.67;;;21.55;;
54025;SDS011;74404;50.662;3.398;2024-03-08T13:23:30;33.90;;;22.40;;
54025;SDS011;74404;50.662;3.398;2024-03-08T13:25:55;30.55;;;21.65;;
54025;SDS011;74404;50.662;3.398;2024-03-08T13:28:22;33.33;;;21.25;;
54025;SDS011;74404;50.662;3.398;2024-03-08T13:30:53;29.80;;;21.35;;
54025;SDS011;74404;50.662;3.398;2024-03-08T13:33:18;32.05;;;21.10;;
54025;SDS011;74404;50.662;3.398;2024-03-08T13:35:45;38.65;;;21.25;;
54025;SDS011;74404;50.662;3.398;2024-03-08T13:38:11;34.90;;;21.40;;
54025;SDS011;74404;50.662;3.398;2024-03-08T13:40:38;33.75;;;21.95;;
54025;SDS011;74404;50.662;3.398;2024-03-08T13:43:05;30.35;;;20.88;;
54025;SDS011;74404;50.662;3.398;2024-03-08T13:45:33;32.03;;;21.20;;
54025;SDS011;74404;50.662;3.398;2024-03-08T13:48:03;31.00;;;20.50;;
54025;SDS011;74404;50.662;3.398;2024-03-08T13:50:37;32.28;;;20.58;;
54025;SDS011;74404;50.662;3.398;2024-03-08T13:53:05;34.63;;;21.17;;
54025;SDS011;74404;50.662;3.398;2024-03-08T13:55:30;33.05;;;20.55;;
54025;SDS011;74404;50.662;3.398;2024-03-08T13:57:56;31.13;;;20.27;;
54025;SDS011;74404;50.662;3.398;2024-03-08T14:00:22;32.00;;;20.55;;
54025;SDS011;74404;50.662;3.398;2024-03-08T14:02:50;29.95;;;20.40;;
54025;SDS011;74404;50.662;3.398;2024-03-08T14:05:16;31.15;;;21.23;;
54025;SDS011;74404;50.662;3.398;2024-03-08T14:07:42;29.60;;;20.25;;
54025;SDS011;74404;50.662;3.398;2024-03-08T14:10:11;29.83;;;19.92;;
54025;SDS011;74404;50.662;3.398;2024-03-08T14:12:37;30.05;;;20.40;;
54025;SDS011;74404;50.662;3.398;2024-03-08T14:15:04;28.10;;;19.33;;
54025;SDS011;74404;50.662;3.398;2024-03-08T14:17:31;29.98;;;19.98;;
54025;SDS011;74404;50.662;3.398;2024-03-08T14:19:58;28.23;;;19.48;;
54025;SDS011;74404;50.662;3.398;2024-03-08T14:22:24;28.13;;;19.70;;
54025;SDS011;74404;50.662;3.398;2024-03-08T14:24:49;30.27;;;19.33;;
54025;SDS011;74404;50.662;3.398;2024-03-08T14:27:16;29.60;;;19.83;;
54025;SDS011;74404;50.662;3.398;2024-03-08T14:29:43;31.83;;;20.25;;
54025;SDS011;74404;50.662;3.398;2024-03-08T14:32:09;28.15;;;19.90;;